sensor_id;sensor_type;location;lat;lon;timestamp;P1;durP1;ratioP1;P2;durP2;ratioP2
74660;SDS011;63191;39.566;2.654;2023-07-29T00:00:52;8.00;;;1.60;;
74660;SDS011;63191;39.566;2.654;2023-07-29T00:03:18;6.40;;;1.80;;
74660;SDS011;63191;39.566;2.654;2023-07-29T00:05:44;5.90;;;1.90;;
74660;SDS011;63191;39.566;2.654;2023-07-29T00:08:10;7.60;;;2.00;;
74660;SDS011;63191;39.566;2.654;2023-07-29T00:10:37;6.40;;;1.60;;
74660;SDS011;63191;39.566;2.654;2023-07-29T00:13:04;7.60;;;2.00;;
74660;SDS011;63191;39.566;2.654;2023-07-29T00:15:30;6.70;;;1.70;;
74660;SDS011;63191;39.566;2.654;2023-07-29T00:17:56;6.90;;;1.90;;
74660;SDS011;63191;39.566;2.654;2023-07-29T00:20:22;7.30;;;1.80;;
74660;SDS011;63191;39.566;2.654;2023-07-29T00:22:48;6.20;;;1.90;;
74660;SDS011;63191;39.566;2.654;2023-07-29T00:25:16;7.40;;;2.60;;
74660;SDS011;63191;39.566;2.654;2023-07-29T00:27:42;6.40;;;2.30;;
74660;SDS011;63191;39.566;2.654;2023-07-29T00:30:08;12.60;;;5.00;;
74660;SDS011;63191;39.566;2.654;2023-07-29T00:32:35;9.10;;;2.70;;
74660;SDS011;63191;39.566;2.654;2023-07-29T00:35:01;8.10;;;2.40;;
74660;SDS011;63191;39.566;2.654;2023-07-29T00:37:28;7.40;;;2.10;;
74660;SDS011;63191;39.566;2.654;2023-07-29T00:39:55;4.90;;;1.70;;
74660;SDS011;63191;39.566;2.654;2023-07-29T00:42:21;7.10;;;1.90;;
74660;SDS011;63191;39.566;2.654;2023-07-29T00:44:47;5.30;;;1.70;;
74660;SDS011;63191;39.566;2.654;2023-07-29T00:47:15;7.00;;;2.00;;
74660;SDS011;63191;39.566;2.654;2023-07-29T00:49:44;7.00;;;1.90;;
74660;SDS011;63191;39.566;2.654;2023-07-29T00:52:11;6.50;;;1.90;;
74660;SDS011;63191;39.566;2.654;2023-07-29T00:54:40;6.40;;;1.90;;
74660;SDS011;63191;39.566;2.654;2023-07-29T00:57:11;7.40;;;2.00;;
74660;SDS011;63191;39.566;2.654;2023-07-29T00:59:39;6.50;;;2.00;;
74660;SDS011;63191;39.566;2.654;2023-07-29T01:02:05;6.10;;;1.80;;
74660;SDS011;63191;39.566;2.654;2023-07-29T01:04:31;7.00;;;1.80;;
74660;SDS011;63191;39.566;2.654;2023-07-29T01:10:01;6.60;;;1.80;;
74660;SDS011;63191;39.566;2.654;2023-07-29T01:12:42;6.70;;;1.90;;
74660;SDS011;63191;39.566;2.654;2023-07-29T01:16:04;6.90;;;2.00;;
74660;SDS011;63191;39.566;2.654;2023-07-29T01:18:31;8.10;;;2.00;;
74660;SDS011;63191;39.566;2.654;2023-07-29T01:21:00;6.10;;;1.70;;
74660;SDS011;63191;39.566;2.654;2023-07-29T01:23:30;7.70;;;1.60;;
74660;SDS011;63191;39.566;2.654;2023-07-29T01:25:57;8.30;;;1.80;;
74660;SDS011;63191;39.566;2.654;2023-07-29T01:28:23;6.90;;;1.80;;
74660;SDS011;63191;39.566;2.654;2023-07-29T01:30:51;6.70;;;1.80;;
74660;SDS011;63191;39.566;2.654;2023-07-29T01:33:42;6.60;;;1.60;;
74660;SDS011;63191;39.566;2.654;2023-07-29T01:36:26;6.10;;;1.40;;
74660;SDS011;63191;39.566;2.654;2023-07-29T01:38:54;5.30;;;1.50;;
74660;SDS011;63191;39.566;2.654;2023-07-29T01:41:21;7.00;;;1.90;;
74660;SDS011;63191;39.566;2.654;2023-07-29T01:43:47;7.10;;;1.80;;
74660;SDS011;63191;39.566;2.654;2023-07-29T01:46:14;8.50;;;2.10;;
74660;SDS011;63191;39.566;2.654;2023-07-29T01:48:40;7.40;;;2.00;;
74660;SDS011;63191;39.566;2.654;2023-07-29T01:51:07;7.50;;;1.60;;
74660;SDS011;63191;39.566;2.654;2023-07-29T01:53:33;4.20;;;1.50;;
74660;SDS011;63191;39.566;2.654;2023-07-29T01:55:59;8.00;;;1.80;;
74660;SDS011;63191;39.566;2.654;2023-07-29T01:58:25;7.00;;;1.60;;
74660;SDS011;63191;39.566;2.654;2023-07-29T02:00:51;5.90;;;1.50;;
74660;SDS011;63191;39.566;2.654;2023-07-29T02:03:16;8.00;;;2.30;;
74660;SDS011;63191;39.566;2.654;2023-07-29T02:05:42;6.60;;;2.10;;
74660;SDS011;63191;39.566;2.654;2023-07-29T02:08:09;5.80;;;1.70;;
74660;SDS011;63191;39.566;2.654;2023-07-29T02:10:36;6.80;;;1.70;;
74660;SDS011;63191;39.566;2.654;2023-07-29T02:13:02;9.60;;;2.00;;
74660;SDS011;63191;39.566;2.654;2023-07-29T02:15:29;7.70;;;2.00;;
74660;SDS011;63191;39.566;2.654;2023-07-29T02:17:54;7.60;;;1.90;;
74660;SDS011;63191;39.566;2.654;2023-07-29T02:20:20;7.60;;;1.70;;
74660;SDS011;63191;39.566;2.654;2023-07-29T02:22:46;9.20;;;1.90;;
74660;SDS011;63191;39.566;2.654;2023-07-29T02:25:13;6.30;;;1.60;;
74660;SDS011;63191;39.566;2.654;2023-07-29T02:27:39;9.40;;;2.30;;
74660;SDS011;63191;39.566;2.654;2023-07-29T02:30:06;6.70;;;2.00;;
74660;SDS011;63191;39.566;2.654;2023-07-29T02:32:32;6.40;;;1.80;;
74660;SDS011;63191;39.566;2.654;2023-07-29T02:34:58;6.30;;;1.90;;
74660;SDS011;63191;39.566;2.654;2023-07-29T02:37:23;5.90;;;1.70;;
74660;SDS011;63191;39.566;2.654;2023-07-29T02:39:49;6.60;;;1.70;;
74660;SDS011;63191;39.566;2.654;2023-07-29T02:42:15;6.60;;;1.80;;
74660;SDS011;63191;39.566;2.654;2023-07-29T02:44:40;6.70;;;1.70;;
74660;SDS011;63191;39.566;2.654;2023-07-29T02:47:07;5.40;;;1.80;;
74660;SDS011;63191;39.566;2.654;2023-07-29T02:49:32;6.90;;;1.90;;
74660;SDS011;63191;39.566;2.654;2023-07-29T02:51:58;7.60;;;2.00;;
74660;SDS011;63191;39.566;2.654;2023-07-29T02:54:24;5.90;;;2.00;;
74660;SDS011;63191;39.566;2.654;2023-07-29T02:56:50;6.10;;;1.80;;
74660;SDS011;63191;39.566;2.654;2023-07-29T02:59:16;8.70;;;1.90;;
74660;SDS011;63191;39.566;2.654;2023-07-29T03:01:42;5.70;;;1.90;;
74660;SDS011;63191;39.566;2.654;2023-07-29T03:04:08;6.80;;;2.10;;
74660;SDS011;63191;39.566;2.654;2023-07-29T03:06:33;8.70;;;1.80;;
74660;SDS011;63191;39.566;2.654;2023-07-29T03:08:59;7.00;;;2.00;;
74660;SDS011;63191;39.566;2.654;2023-07-29T03:11:25;7.00;;;2.10;;
74660;SDS011;63191;39.566;2.654;2023-07-29T03:13:51;7.30;;;1.80;;
74660;SDS011;63191;39.566;2.654;2023-07-29T03:16:17;10.50;;;2.40;;
74660;SDS011;63191;39.566;2.654;2023-07-29T03:18:44;8.80;;;2.30;;
74660;SDS011;63191;39.566;2.654;2023-07-29T03:21:10;6.00;;;1.90;;
74660;SDS011;63191;39.566;2.654;2023-07-29T03:23:37;6.40;;;2.00;;
74660;SDS011;63191;39.566;2.654;2023-07-29T03:26:04;6.70;;;1.70;;
74660;SDS011;63191;39.566;2.654;2023-07-29T03:28:40;7.00;;;1.90;;
74660;SDS011;63191;39.566;2.654;2023-07-29T03:31:06;8.80;;;2.10;;
74660;SDS011;63191;39.566;2.654;2023-07-29T03:33:33;6.20;;;1.90;;
74660;SDS011;63191;39.566;2.654;2023-07-29T03:35:59;7.00;;;2.20;;
74660;SDS011;63191;39.566;2.654;2023-07-29T03:38:25;6.20;;;2.10;;
74660;SDS011;63191;39.566;2.654;2023-07-29T03:40:51;6.40;;;2.10;;
74660;SDS011;63191;39.566;2.654;2023-07-29T03:43:17;8.40;;;2.20;;
74660;SDS011;63191;39.566;2.654;2023-07-29T03:45:42;6.40;;;2.00;;
74660;SDS011;63191;39.566;2.654;2023-07-29T03:48:08;6.50;;;2.10;;
74660;SDS011;63191;39.566;2.654;2023-07-29T03:50:35;7.40;;;1.90;;
74660;SDS011;63191;39.566;2.654;2023-07-29T03:53:04;7.40;;;1.80;;
74660;SDS011;63191;39.566;2.654;2023-07-29T03:55:31;5.90;;;1.80;;
74660;SDS011;63191;39.566;2.654;2023-07-29T03:57:58;8.20;;;2.30;;
74660;SDS011;63191;39.566;2.654;2023-07-29T04:00:25;6.40;;;1.90;;
74660;SDS011;63191;39.566;2.654;2023-07-29T04:02:51;5.90;;;1.90;;
74660;SDS011;63191;39.566;2.654;2023-07-29T04:05:17;7.50;;;2.00;;
74660;SDS011;63191;39.566;2.654;2023-07-29T04:07:44;6.30;;;2.00;;
74660;SDS011;63191;39.566;2.654;2023-07-29T04:10:10;7.70;;;2.20;;
74660;SDS011;63191;39.566;2.654;2023-07-29T04:12:37;7.50;;;2.00;;
74660;SDS011;63191;39.566;2.654;2023-07-29T04:15:03;6.40;;;2.00;;
74660;SDS011;63191;39.566;2.654;2023-07-29T04:17:29;6.70;;;2.00;;
74660;SDS011;63191;39.566;2.654;2023-07-29T04:19:54;6.20;;;1.70;;
74660;SDS011;63191;39.566;2.654;2023-07-29T04:22:20;6.50;;;2.10;;
74660;SDS011;63191;39.566;2.654;2023-07-29T04:24:46;5.20;;;1.80;;
74660;SDS011;63191;39.566;2.654;2023-07-29T04:27:12;6.40;;;1.80;;
74660;SDS011;63191;39.566;2.654;2023-07-29T04:29:38;8.70;;;2.00;;
74660;SDS011;63191;39.566;2.654;2023-07-29T04:32:04;5.50;;;1.50;;
74660;SDS011;63191;39.566;2.654;2023-07-29T04:34:31;4.60;;;1.30;;
74660;SDS011;63191;39.566;2.654;2023-07-29T04:36:57;5.20;;;1.60;;
74660;SDS011;63191;39.566;2.654;2023-07-29T04:39:23;6.30;;;1.40;;
74660;SDS011;63191;39.566;2.654;2023-07-29T04:41:48;4.90;;;1.40;;
74660;SDS011;63191;39.566;2.654;2023-07-29T04:44:14;4.90;;;1.30;;
74660;SDS011;63191;39.566;2.654;2023-07-29T04:46:40;5.60;;;1.40;;
74660;SDS011;63191;39.566;2.654;2023-07-29T04:49:06;4.40;;;1.20;;
74660;SDS011;63191;39.566;2.654;2023-07-29T04:51:31;5.50;;;1.40;;
74660;SDS011;63191;39.566;2.654;2023-07-29T04:53:58;3.40;;;1.10;;
74660;SDS011;63191;39.566;2.654;2023-07-29T04:56:24;7.90;;;1.50;;
74660;SDS011;63191;39.566;2.654;2023-07-29T04:58:50;5.30;;;1.30;;
74660;SDS011;63191;39.566;2.654;2023-07-29T05:01:16;6.00;;;1.50;;
74660;SDS011;63191;39.566;2.654;2023-07-29T05:03:41;4.20;;;1.30;;
74660;SDS011;63191;39.566;2.654;2023-07-29T05:06:07;4.90;;;1.40;;
74660;SDS011;63191;39.566;2.654;2023-07-29T05:08:33;5.30;;;1.30;;
74660;SDS011;63191;39.566;2.654;2023-07-29T05:10:59;5.10;;;1.20;;
74660;SDS011;63191;39.566;2.654;2023-07-29T05:13:25;4.90;;;1.20;;
74660;SDS011;63191;39.566;2.654;2023-07-29T05:15:51;4.10;;;1.20;;
74660;SDS011;63191;39.566;2.654;2023-07-29T05:18:17;5.00;;;1.40;;
74660;SDS011;63191;39.566;2.654;2023-07-29T05:20:43;4.80;;;1.40;;
74660;SDS011;63191;39.566;2.654;2023-07-29T05:23:09;5.60;;;1.50;;
74660;SDS011;63191;39.566;2.654;2023-07-29T05:25:35;5.20;;;1.40;;
74660;SDS011;63191;39.566;2.654;2023-07-29T05:28:01;4.80;;;1.40;;
74660;SDS011;63191;39.566;2.654;2023-07-29T05:30:28;7.10;;;1.30;;
74660;SDS011;63191;39.566;2.654;2023-07-29T05:33:00;4.80;;;1.40;;
74660;SDS011;63191;39.566;2.654;2023-07-29T05:35:26;5.70;;;1.40;;
74660;SDS011;63191;39.566;2.654;2023-07-29T05:37:52;4.90;;;1.40;;
74660;SDS011;63191;39.566;2.654;2023-07-29T05:40:18;5.90;;;1.40;;
74660;SDS011;63191;39.566;2.654;2023-07-29T05:42:44;4.60;;;1.60;;
74660;SDS011;63191;39.566;2.654;2023-07-29T05:45:11;3.50;;;1.20;;
74660;SDS011;63191;39.566;2.654;2023-07-29T05:47:37;5.80;;;1.20;;
74660;SDS011;63191;39.566;2.654;2023-07-29T05:50:03;4.90;;;1.30;;
74660;SDS011;63191;39.566;2.654;2023-07-29T05:52:33;5.30;;;1.80;;
74660;SDS011;63191;39.566;2.654;2023-07-29T05:55:00;4.10;;;1.60;;
74660;SDS011;63191;39.566;2.654;2023-07-29T05:57:26;5.80;;;1.40;;
74660;SDS011;63191;39.566;2.654;2023-07-29T05:59:53;5.40;;;1.30;;
74660;SDS011;63191;39.566;2.654;2023-07-29T06:02:19;6.70;;;1.40;;
74660;SDS011;63191;39.566;2.654;2023-07-29T06:04:44;5.60;;;1.50;;
74660;SDS011;63191;39.566;2.654;2023-07-29T06:07:10;5.80;;;1.50;;
74660;SDS011;63191;39.566;2.654;2023-07-29T06:09:36;6.20;;;1.40;;
74660;SDS011;63191;39.566;2.654;2023-07-29T06:12:02;5.90;;;1.30;;
74660;SDS011;63191;39.566;2.654;2023-07-29T06:14:28;5.40;;;1.60;;
74660;SDS011;63191;39.566;2.654;2023-07-29T06:16:54;5.50;;;1.70;;
74660;SDS011;63191;39.566;2.654;2023-07-29T06:19:20;4.10;;;1.50;;
74660;SDS011;63191;39.566;2.654;2023-07-29T06:21:46;6.30;;;1.50;;
74660;SDS011;63191;39.566;2.654;2023-07-29T06:24:11;4.60;;;1.50;;
74660;SDS011;63191;39.566;2.654;2023-07-29T06:26:38;4.10;;;1.40;;
74660;SDS011;63191;39.566;2.654;2023-07-29T06:29:03;6.40;;;1.70;;
74660;SDS011;63191;39.566;2.654;2023-07-29T06:31:29;6.00;;;1.60;;
74660;SDS011;63191;39.566;2.654;2023-07-29T06:33:55;5.60;;;1.30;;
74660;SDS011;63191;39.566;2.654;2023-07-29T06:36:21;8.60;;;1.90;;
74660;SDS011;63191;39.566;2.654;2023-07-29T06:38:47;5.90;;;1.80;;
74660;SDS011;63191;39.566;2.654;2023-07-29T06:41:13;5.40;;;1.60;;
74660;SDS011;63191;39.566;2.654;2023-07-29T06:43:39;5.90;;;1.50;;
74660;SDS011;63191;39.566;2.654;2023-07-29T06:46:05;6.20;;;2.00;;
74660;SDS011;63191;39.566;2.654;2023-07-29T06:48:30;6.20;;;1.90;;
74660;SDS011;63191;39.566;2.654;2023-07-29T06:50:56;5.20;;;1.60;;
74660;SDS011;63191;39.566;2.654;2023-07-29T06:53:26;5.90;;;1.90;;
74660;SDS011;63191;39.566;2.654;2023-07-29T06:55:52;5.80;;;1.60;;
74660;SDS011;63191;39.566;2.654;2023-07-29T06:58:19;6.70;;;2.10;;
74660;SDS011;63191;39.566;2.654;2023-07-29T07:00:45;7.00;;;1.50;;
74660;SDS011;63191;39.566;2.654;2023-07-29T07:03:11;6.90;;;1.80;;
74660;SDS011;63191;39.566;2.654;2023-07-29T07:05:36;5.70;;;1.80;;
74660;SDS011;63191;39.566;2.654;2023-07-29T07:08:02;6.40;;;2.00;;
74660;SDS011;63191;39.566;2.654;2023-07-29T07:10:28;5.90;;;2.00;;
74660;SDS011;63191;39.566;2.654;2023-07-29T07:12:54;8.90;;;2.20;;
74660;SDS011;63191;39.566;2.654;2023-07-29T07:15:20;6.60;;;2.00;;
74660;SDS011;63191;39.566;2.654;2023-07-29T07:17:45;5.80;;;1.80;;
74660;SDS011;63191;39.566;2.654;2023-07-29T07:20:11;6.10;;;1.80;;
74660;SDS011;63191;39.566;2.654;2023-07-29T07:22:37;6.30;;;2.00;;
74660;SDS011;63191;39.566;2.654;2023-07-29T07:25:03;6.80;;;2.10;;
74660;SDS011;63191;39.566;2.654;2023-07-29T07:27:29;9.80;;;2.20;;
74660;SDS011;63191;39.566;2.654;2023-07-29T07:29:55;7.80;;;2.20;;
74660;SDS011;63191;39.566;2.654;2023-07-29T07:32:21;6.70;;;2.10;;
74660;SDS011;63191;39.566;2.654;2023-07-29T07:34:46;8.30;;;2.00;;
74660;SDS011;63191;39.566;2.654;2023-07-29T07:37:12;6.60;;;2.20;;
74660;SDS011;63191;39.566;2.654;2023-07-29T07:39:38;6.50;;;2.00;;
74660;SDS011;63191;39.566;2.654;2023-07-29T07:42:04;5.80;;;1.80;;
74660;SDS011;63191;39.566;2.654;2023-07-29T07:44:30;7.70;;;1.90;;
74660;SDS011;63191;39.566;2.654;2023-07-29T07:46:55;6.20;;;2.00;;
74660;SDS011;63191;39.566;2.654;2023-07-29T07:49:22;7.30;;;2.10;;
74660;SDS011;63191;39.566;2.654;2023-07-29T07:51:48;6.30;;;1.80;;
74660;SDS011;63191;39.566;2.654;2023-07-29T07:54:14;5.10;;;2.00;;
74660;SDS011;63191;39.566;2.654;2023-07-29T07:56:40;8.90;;;2.30;;
74660;SDS011;63191;39.566;2.654;2023-07-29T07:59:05;5.70;;;2.20;;
74660;SDS011;63191;39.566;2.654;2023-07-29T08:01:35;7.40;;;2.20;;
74660;SDS011;63191;39.566;2.654;2023-07-29T08:04:02;6.10;;;2.20;;
74660;SDS011;63191;39.566;2.654;2023-07-29T08:06:28;8.50;;;2.10;;
74660;SDS011;63191;39.566;2.654;2023-07-29T08:08:54;8.50;;;2.10;;
74660;SDS011;63191;39.566;2.654;2023-07-29T08:11:19;7.60;;;2.30;;
74660;SDS011;63191;39.566;2.654;2023-07-29T08:13:45;6.80;;;1.90;;
74660;SDS011;63191;39.566;2.654;2023-07-29T08:16:12;8.90;;;2.30;;
74660;SDS011;63191;39.566;2.654;2023-07-29T08:18:38;8.30;;;2.70;;
74660;SDS011;63191;39.566;2.654;2023-07-29T08:21:04;8.60;;;2.50;;
74660;SDS011;63191;39.566;2.654;2023-07-29T08:23:31;7.40;;;2.50;;
74660;SDS011;63191;39.566;2.654;2023-07-29T08:26:00;7.00;;;2.20;;
74660;SDS011;63191;39.566;2.654;2023-07-29T08:28:35;7.70;;;2.40;;
74660;SDS011;63191;39.566;2.654;2023-07-29T08:31:02;6.80;;;2.20;;
74660;SDS011;63191;39.566;2.654;2023-07-29T08:33:29;7.90;;;5.10;;
74660;SDS011;63191;39.566;2.654;2023-07-29T08:35:55;8.20;;;2.40;;
74660;SDS011;63191;39.566;2.654;2023-07-29T08:38:21;5.90;;;1.80;;
74660;SDS011;63191;39.566;2.654;2023-07-29T08:40:57;7.50;;;2.30;;
74660;SDS011;63191;39.566;2.654;2023-07-29T08:43:29;7.70;;;2.10;;
74660;SDS011;63191;39.566;2.654;2023-07-29T08:46:00;8.90;;;2.40;;
74660;SDS011;63191;39.566;2.654;2023-07-29T08:48:35;8.60;;;2.10;;
74660;SDS011;63191;39.566;2.654;2023-07-29T08:51:05;5.80;;;2.30;;
74660;SDS011;63191;39.566;2.654;2023-07-29T08:53:37;6.70;;;2.00;;
74660;SDS011;63191;39.566;2.654;2023-07-29T08:56:04;8.60;;;2.00;;
74660;SDS011;63191;39.566;2.654;2023-07-29T08:58:31;6.90;;;2.10;;
74660;SDS011;63191;39.566;2.654;2023-07-29T09:00:57;7.40;;;2.20;;
74660;SDS011;63191;39.566;2.654;2023-07-29T09:03:23;5.80;;;2.00;;
74660;SDS011;63191;39.566;2.654;2023-07-29T09:05:50;5.80;;;2.10;;
74660;SDS011;63191;39.566;2.654;2023-07-29T09:08:16;6.20;;;2.30;;
74660;SDS011;63191;39.566;2.654;2023-07-29T09:10:42;8.90;;;3.10;;
74660;SDS011;63191;39.566;2.654;2023-07-29T09:13:08;8.70;;;2.40;;
74660;SDS011;63191;39.566;2.654;2023-07-29T09:15:35;7.80;;;2.50;;
74660;SDS011;63191;39.566;2.654;2023-07-29T09:18:10;6.60;;;1.90;;
74660;SDS011;63191;39.566;2.654;2023-07-29T09:20:37;6.40;;;2.30;;
74660;SDS011;63191;39.566;2.654;2023-07-29T09:23:03;8.80;;;2.30;;
74660;SDS011;63191;39.566;2.654;2023-07-29T09:25:29;8.30;;;2.80;;
74660;SDS011;63191;39.566;2.654;2023-07-29T09:27:59;5.60;;;2.00;;
74660;SDS011;63191;39.566;2.654;2023-07-29T09:30:26;7.70;;;2.70;;
74660;SDS011;63191;39.566;2.654;2023-07-29T09:32:56;6.00;;;2.50;;
74660;SDS011;63191;39.566;2.654;2023-07-29T09:35:24;8.10;;;2.40;;
74660;SDS011;63191;39.566;2.654;2023-07-29T09:37:52;10.60;;;2.70;;
74660;SDS011;63191;39.566;2.654;2023-07-29T09:40:18;7.90;;;2.20;;
74660;SDS011;63191;39.566;2.654;2023-07-29T09:42:48;8.10;;;2.60;;
74660;SDS011;63191;39.566;2.654;2023-07-29T09:45:22;6.50;;;2.20;;
74660;SDS011;63191;39.566;2.654;2023-07-29T09:47:49;6.50;;;2.00;;
74660;SDS011;63191;39.566;2.654;2023-07-29T09:50:16;6.70;;;2.20;;
74660;SDS011;63191;39.566;2.654;2023-07-29T09:52:42;7.80;;;2.40;;
74660;SDS011;63191;39.566;2.654;2023-07-29T09:55:17;7.30;;;2.80;;
74660;SDS011;63191;39.566;2.654;2023-07-29T09:57:45;6.00;;;2.20;;
74660;SDS011;63191;39.566;2.654;2023-07-29T10:00:11;6.30;;;2.50;;
74660;SDS011;63191;39.566;2.654;2023-07-29T10:02:39;7.50;;;2.40;;
74660;SDS011;63191;39.566;2.654;2023-07-29T10:05:08;7.10;;;2.40;;
74660;SDS011;63191;39.566;2.654;2023-07-29T10:07:39;8.90;;;3.20;;
74660;SDS011;63191;39.566;2.654;2023-07-29T10:10:06;8.40;;;2.50;;
74660;SDS011;63191;39.566;2.654;2023-07-29T10:12:39;7.30;;;2.10;;
74660;SDS011;63191;39.566;2.654;2023-07-29T10:15:08;7.00;;;2.20;;
74660;SDS011;63191;39.566;2.654;2023-07-29T10:17:36;6.70;;;2.40;;
74660;SDS011;63191;39.566;2.654;2023-07-29T10:20:07;6.80;;;2.20;;
74660;SDS011;63191;39.566;2.654;2023-07-29T10:22:40;5.50;;;2.10;;
74660;SDS011;63191;39.566;2.654;2023-07-29T10:25:16;8.30;;;2.30;;
74660;SDS011;63191;39.566;2.654;2023-07-29T10:27:58;5.70;;;2.20;;
74660;SDS011;63191;39.566;2.654;2023-07-29T10:30:29;6.80;;;2.10;;
74660;SDS011;63191;39.566;2.654;2023-07-29T10:32:58;9.10;;;2.30;;
74660;SDS011;63191;39.566;2.654;2023-07-29T10:35:28;7.20;;;2.50;;
74660;SDS011;63191;39.566;2.654;2023-07-29T10:37:54;9.90;;;2.50;;
74660;SDS011;63191;39.566;2.654;2023-07-29T10:40:21;9.60;;;2.50;;
74660;SDS011;63191;39.566;2.654;2023-07-29T10:43:10;6.50;;;2.20;;
74660;SDS011;63191;39.566;2.654;2023-07-29T10:45:41;6.50;;;2.20;;
74660;SDS011;63191;39.566;2.654;2023-07-29T10:48:11;6.80;;;2.30;;
74660;SDS011;63191;39.566;2.654;2023-07-29T10:50:38;9.70;;;2.20;;
74660;SDS011;63191;39.566;2.654;2023-07-29T10:53:04;7.60;;;2.10;;
74660;SDS011;63191;39.566;2.654;2023-07-29T10:55:34;8.90;;;2.20;;
74660;SDS011;63191;39.566;2.654;2023-07-29T10:58:14;7.80;;;2.10;;
74660;SDS011;63191;39.566;2.654;2023-07-29T11:00:45;7.70;;;2.40;;
74660;SDS011;63191;39.566;2.654;2023-07-29T11:03:13;8.00;;;2.50;;
74660;SDS011;63191;39.566;2.654;2023-07-29T11:05:52;7.10;;;2.20;;
74660;SDS011;63191;39.566;2.654;2023-07-29T11:08:29;6.10;;;2.20;;
74660;SDS011;63191;39.566;2.654;2023-07-29T11:11:08;8.10;;;2.30;;
74660;SDS011;63191;39.566;2.654;2023-07-29T11:13:38;5.90;;;2.10;;
74660;SDS011;63191;39.566;2.654;2023-07-29T11:16:05;8.70;;;2.40;;
74660;SDS011;63191;39.566;2.654;2023-07-29T11:18:33;6.90;;;2.30;;
74660;SDS011;63191;39.566;2.654;2023-07-29T11:21:00;5.90;;;2.30;;
74660;SDS011;63191;39.566;2.654;2023-07-29T11:23:34;7.50;;;2.30;;
74660;SDS011;63191;39.566;2.654;2023-07-29T11:26:02;7.60;;;2.20;;
74660;SDS011;63191;39.566;2.654;2023-07-29T11:28:30;6.50;;;2.40;;
74660;SDS011;63191;39.566;2.654;2023-07-29T11:30:56;7.20;;;2.50;;
74660;SDS011;63191;39.566;2.654;2023-07-29T11:33:25;9.10;;;2.10;;
74660;SDS011;63191;39.566;2.654;2023-07-29T11:35:53;7.00;;;2.60;;
74660;SDS011;63191;39.566;2.654;2023-07-29T11:38:21;6.20;;;2.30;;
74660;SDS011;63191;39.566;2.654;2023-07-29T11:40:59;8.00;;;2.80;;
74660;SDS011;63191;39.566;2.654;2023-07-29T11:43:25;8.20;;;2.10;;
74660;SDS011;63191;39.566;2.654;2023-07-29T11:45:52;8.20;;;2.50;;
74660;SDS011;63191;39.566;2.654;2023-07-29T11:48:26;7.10;;;3.00;;
74660;SDS011;63191;39.566;2.654;2023-07-29T11:51:02;7.60;;;2.40;;
74660;SDS011;63191;39.566;2.654;2023-07-29T11:53:29;8.80;;;2.70;;
74660;SDS011;63191;39.566;2.654;2023-07-29T11:55:56;7.80;;;2.40;;
74660;SDS011;63191;39.566;2.654;2023-07-29T11:58:23;8.50;;;2.70;;
74660;SDS011;63191;39.566;2.654;2023-07-29T12:00:49;7.90;;;2.70;;
74660;SDS011;63191;39.566;2.654;2023-07-29T12:03:16;9.70;;;2.80;;
74660;SDS011;63191;39.566;2.654;2023-07-29T12:05:43;8.30;;;3.00;;
74660;SDS011;63191;39.566;2.654;2023-07-29T12:08:10;7.10;;;3.00;;
74660;SDS011;63191;39.566;2.654;2023-07-29T12:10:36;6.80;;;3.20;;
74660;SDS011;63191;39.566;2.654;2023-07-29T12:13:02;7.60;;;3.10;;
74660;SDS011;63191;39.566;2.654;2023-07-29T12:15:29;6.30;;;3.40;;
74660;SDS011;63191;39.566;2.654;2023-07-29T12:17:59;8.50;;;4.20;;
74660;SDS011;63191;39.566;2.654;2023-07-29T12:20:26;6.60;;;4.10;;
74660;SDS011;63191;39.566;2.654;2023-07-29T12:22:56;8.20;;;4.30;;
74660;SDS011;63191;39.566;2.654;2023-07-29T12:25:23;7.80;;;5.60;;
74660;SDS011;63191;39.566;2.654;2023-07-29T12:27:49;7.80;;;5.90;;
74660;SDS011;63191;39.566;2.654;2023-07-29T12:30:15;7.80;;;6.00;;
74660;SDS011;63191;39.566;2.654;2023-07-29T12:32:49;9.10;;;6.80;;
74660;SDS011;63191;39.566;2.654;2023-07-29T12:35:15;8.70;;;7.40;;
74660;SDS011;63191;39.566;2.654;2023-07-29T12:37:41;9.80;;;8.80;;
74660;SDS011;63191;39.566;2.654;2023-07-29T12:40:28;12.20;;;11.20;;
74660;SDS011;63191;39.566;2.654;2023-07-29T12:42:54;14.00;;;12.80;;
74660;SDS011;63191;39.566;2.654;2023-07-29T12:45:20;15.00;;;13.80;;
74660;SDS011;63191;39.566;2.654;2023-07-29T12:47:54;17.40;;;16.20;;
74660;SDS011;63191;39.566;2.654;2023-07-29T12:50:19;21.20;;;19.80;;
74660;SDS011;63191;39.566;2.654;2023-07-29T12:52:46;24.10;;;22.60;;
74660;SDS011;63191;39.566;2.654;2023-07-29T12:55:12;26.90;;;25.30;;
74660;SDS011;63191;39.566;2.654;2023-07-29T12:57:41;29.80;;;28.10;;
74660;SDS011;63191;39.566;2.654;2023-07-29T13:00:08;33.60;;;31.60;;
74660;SDS011;63191;39.566;2.654;2023-07-29T13:02:34;37.10;;;35.00;;
74660;SDS011;63191;39.566;2.654;2023-07-29T13:05:00;41.20;;;38.90;;
74660;SDS011;63191;39.566;2.654;2023-07-29T13:07:25;43.70;;;41.30;;
74660;SDS011;63191;39.566;2.654;2023-07-29T13:09:51;48.40;;;45.90;;
74660;SDS011;63191;39.566;2.654;2023-07-29T13:12:17;50.40;;;47.80;;
74660;SDS011;63191;39.566;2.654;2023-07-29T13:14:42;55.40;;;52.50;;
74660;SDS011;63191;39.566;2.654;2023-07-29T13:17:09;57.10;;;54.20;;
74660;SDS011;63191;39.566;2.654;2023-07-29T13:19:34;59.40;;;56.40;;
74660;SDS011;63191;39.566;2.654;2023-07-29T13:22:00;61.90;;;58.60;;
74660;SDS011;63191;39.566;2.654;2023-07-29T13:24:27;65.50;;;62.30;;
74660;SDS011;63191;39.566;2.654;2023-07-29T13:26:53;67.90;;;64.50;;
74660;SDS011;63191;39.566;2.654;2023-07-29T13:29:19;63.50;;;60.30;;
74660;SDS011;63191;39.566;2.654;2023-07-29T13:31:45;63.60;;;60.40;;
74660;SDS011;63191;39.566;2.654;2023-07-29T13:34:10;64.40;;;61.30;;
74660;SDS011;63191;39.566;2.654;2023-07-29T13:36:36;65.10;;;61.80;;
74660;SDS011;63191;39.566;2.654;2023-07-29T13:39:02;61.60;;;58.50;;
74660;SDS011;63191;39.566;2.654;2023-07-29T13:41:28;62.70;;;59.50;;
74660;SDS011;63191;39.566;2.654;2023-07-29T13:43:53;63.00;;;59.90;;
74660;SDS011;63191;39.566;2.654;2023-07-29T13:46:19;63.00;;;59.80;;
74660;SDS011;63191;39.566;2.654;2023-07-29T13:48:46;63.60;;;60.40;;
74660;SDS011;63191;39.566;2.654;2023-07-29T13:51:12;62.80;;;59.60;;
74660;SDS011;63191;39.566;2.654;2023-07-29T13:53:38;63.70;;;60.60;;
74660;SDS011;63191;39.566;2.654;2023-07-29T13:56:04;62.60;;;59.50;;
74660;SDS011;63191;39.566;2.654;2023-07-29T13:58:30;64.80;;;61.70;;
74660;SDS011;63191;39.566;2.654;2023-07-29T14:00:56;61.70;;;58.60;;
74660;SDS011;63191;39.566;2.654;2023-07-29T14:03:21;62.00;;;58.90;;
74660;SDS011;63191;39.566;2.654;2023-07-29T14:05:47;63.50;;;60.30;;
74660;SDS011;63191;39.566;2.654;2023-07-29T14:08:13;63.00;;;59.90;;
74660;SDS011;63191;39.566;2.654;2023-07-29T14:10:38;63.30;;;60.20;;
74660;SDS011;63191;39.566;2.654;2023-07-29T14:13:04;61.90;;;58.80;;
74660;SDS011;63191;39.566;2.654;2023-07-29T14:15:30;61.70;;;58.60;;
74660;SDS011;63191;39.566;2.654;2023-07-29T14:17:58;62.80;;;59.70;;
74660;SDS011;63191;39.566;2.654;2023-07-29T14:20:23;60.90;;;57.90;;
74660;SDS011;63191;39.566;2.654;2023-07-29T14:22:49;60.00;;;57.10;;
74660;SDS011;63191;39.566;2.654;2023-07-29T14:25:15;59.70;;;56.70;;
74660;SDS011;63191;39.566;2.654;2023-07-29T14:27:41;58.10;;;55.20;;
74660;SDS011;63191;39.566;2.654;2023-07-29T14:30:07;60.40;;;57.30;;
74660;SDS011;63191;39.566;2.654;2023-07-29T14:32:33;58.10;;;55.10;;
74660;SDS011;63191;39.566;2.654;2023-07-29T14:34:59;57.60;;;54.70;;
74660;SDS011;63191;39.566;2.654;2023-07-29T14:37:30;56.90;;;53.90;;
74660;SDS011;63191;39.566;2.654;2023-07-29T14:39:57;56.80;;;53.90;;
74660;SDS011;63191;39.566;2.654;2023-07-29T14:42:23;57.50;;;54.60;;
74660;SDS011;63191;39.566;2.654;2023-07-29T14:44:49;55.60;;;52.80;;
74660;SDS011;63191;39.566;2.654;2023-07-29T14:47:15;56.60;;;53.60;;